Wednesday, May 23, 2018, 1:04 PM GMT
Back to Local

CYQI, Yarmouth, N. S.

Location: , , Canada Lat: 43.833
Local Time: 1:04 PM GMT (13:04 GMT) Lon: -66.083
Time Zone: GMT Elev: 141 ft

Show me the last for .
Show Coded

Time T Td Feel RH Dir Speed Gust Alt SLP Vis Weather Sky Remarks
2018-05-23 12:00 52 48 - 87 270° 8 - 29.86 29.87 12 OVC037 None
2018-05-23 11:00 52 48 - 87 200° 6 - 29.86 29.87 12 FEW050 BKN071 OVC120 None
2018-05-23 10:00 50 46 48 87 200° 5 - 29.88 29.89 12 OVC043 None
2018-05-23 09:00 50 45 49 81 160° 3 - 29.89 29.90 12 FEW026 OVC054 None
2018-05-23 08:00 50 45 47 81 170° 7 - 29.90 29.91 12 SCT029 OVC061 None
2018-05-23 07:00 50 46 47 87 160° 7 - 29.93 29.93 9 FEW028 BKN033 OVC069 None
2018-05-23 06:00 50 46 48 87 160° 5 - 29.95 29.95 9 OVC074 None
2018-05-23 05:00 50 46 48 87 220° 6 - 29.98 29.98 9 OVC090 None
2018-05-23 04:47 50 46 47 87 190° 7 - 29.98 29.99 9 OVC090 Pressure falling rapidly
2018-05-23 04:00 52 46 - 81 230° 10 - 30.00 30.01 9 -SHRA OVC097 None
2018-05-23 03:16 52 46 - 81 240° 9 - 30.01 30.02 9 -SHRA OVC087 None
2018-05-23 03:00 52 46 - 81 230° 8 - 30.03 30.03 9 OVC089 None
2018-05-23 02:00 52 46 - 81 220° 5 - 30.03 30.03 9 BKN064 OVC084 Pressure falling rapidly
2018-05-23 01:26 50 46 47 87 190° 7 - 30.06 30.06 9 BKN064 OVC079 None
2018-05-23 01:02 52 46 - 81 210° 7 - 30.06 30.07 9 -DZ BKN064 OVC079 None
2018-05-23 01:00 52 46 - 81 220° 8 - 30.06 30.07 9 BKN064 OVC100 None
2018-05-23 00:00 52 46 - 81 210° 9 - 30.08 30.08 9 FEW100 OVC120 None
2018-05-22 23:00 52 46 - 81 180° 9 - 30.09 30.10 15 BKN150 OVC180 None
2018-05-22 22:00 52 46 - 81 170° 13 - 30.10 30.10 15 SCT180 OVC210 None
2018-05-22 21:00 54 46 - 76 160° 12 18 30.12 30.12 15 OVC160 None
2018-05-22 20:00 55 46 - 71 160° 10 - 30.13 30.14 15 FEW160 OVC220 None
2018-05-22 19:00 59 45 - 58 160° 14 20 30.14 30.15 15 FEW160 OVC230 None
2018-05-22 18:00 63 41 - 45 180° 15 - 30.16 30.17 15 FEW160 OVC240 None
2018-05-22 17:00 64 36 - 34 150° 16 - 30.17 30.18 15 OVC230 None
2018-05-22 16:00 66 43 - 42 160° 15 22 30.19 30.19 15 FEW100 BKN220 OVC240 None
2018-05-22 15:00 64 37 - 36 150° 13 20 30.20 30.20 15 FEW180 BKN220 BKN240 None
2018-05-22 14:00 61 34 - 36 140° 14 - 30.21 30.21 15 BKN190 BKN220 None

Support USWX by starting your Amazon purchase here.